Terminal Aerodrome Forecast
Issued by NWS

Home | Current Version | Previous Version | Graphics & Text | Print | Product List | Glossary On
Versions: 1 2 3 4 5 6 7 8 9 10 11 12 13 14 15 16 17 18 19 20 21
695
FTUS43 KBIS 192320
TAFDIK
TAF
KDIK 192320Z 2000/2024 26007KT P6SM BKN120
     FM201100 29008KT P6SM SCT130
     FM201400 29007KT P6SM BKN110
     FM202300 31007KT 5SM BR BKN035=

USA.gov is the U.S. government's official web portal to all federal, state and local government web resources and services.